Time;durP1;ratioP1;P1;durP2;ratioP2;P2;SDS_P1;SDS_P2;PMS_P1;PMS_P2;Temp;Humidity;BMP_temperature;BMP_pressure;BME280_temperature;BME280_humidity;BME280_pressure;Samples;Min_cycle;Max_cycle;Signal;HPM_P1;HPM_P2
2023/01/24 00:01:43;;;;;;;14.93;9.13;;;;;;;;;;5050208;28;20413;-44
2023/01/24 00:04:09;;;;;;;10.77;7.50;;;;;;;;;;5043561;28;20401;-43
2023/01/24 00:06:35;;;;;;;14.27;9.50;;;;;;;;;;5051217;28;20175;-43
2023/01/24 00:09:01;;;;;;;12.10;7.93;;;;;;;;;;5043033;28;20535;-43
2023/01/24 00:11:27;;;;;;;14.50;9.30;;;;;;;;;;5051158;28;20409;-43
2023/01/24 00:13:53;;;;;;;10.23;7.40;;;;;;;;;;5042887;28;20902;-43
2023/01/24 00:16:20;;;;;;;14.17;8.00;;;;;;;;;;5045181;28;20999;-43
2023/01/24 00:18:46;;;;;;;12.73;7.97;;;;;;;;;;5047714;28;20413;-43
2023/01/24 00:21:16;;;;;;;12.57;8.48;;;;;;;;;;5044859;28;20556;-43
2023/01/24 00:23:43;;;;;;;16.27;9.10;;;;;;;;;;5042660;28;20521;-43
2023/01/24 00:26:09;;;;;;;9.32;7.18;;;;;;;;;;5043435;28;20257;-43
2023/01/24 00:28:35;;;;;;;12.27;8.68;;;;;;;;;;5042810;28;20556;-43
2023/01/24 00:31:01;;;;;;;11.35;7.20;;;;;;;;;;5050124;28;20171;-43
2023/01/24 00:33:27;;;;;;;13.43;8.82;;;;;;;;;;5043929;28;20187;-43
2023/01/24 00:35:53;;;;;;;11.50;7.77;;;;;;;;;;5047011;28;20282;-43
2023/01/24 00:38:20;;;;;;;11.57;7.47;;;;;;;;;;5043169;28;20421;-43
2023/01/24 00:40:46;;;;;;;11.93;7.47;;;;;;;;;;5051082;28;20420;-43
2023/01/24 00:43:12;;;;;;;10.83;7.43;;;;;;;;;;5047700;28;20198;-43
2023/01/24 00:45:39;;;;;;;11.77;7.55;;;;;;;;;;5046207;28;20805;-44
2023/01/24 00:48:05;;;;;;;14.90;8.52;;;;;;;;;;5046455;28;20175;-43
2023/01/24 00:50:31;;;;;;;13.40;8.00;;;;;;;;;;5052390;28;20190;-43
2023/01/24 00:52:57;;;;;;;9.73;7.90;;;;;;;;;;5046115;28;20652;-43
2023/01/24 00:55:23;;;;;;;8.30;6.43;;;;;;;;;;5051945;28;20464;-44
2023/01/24 00:57:49;;;;;;;8.30;6.80;;;;;;;;;;5053202;28;20512;-43
2023/01/24 01:00:16;;;;;;;9.50;6.70;;;;;;;;;;5047682;28;20417;-43
2023/01/24 01:02:42;;;;;;;11.45;6.85;;;;;;;;;;5046567;28;20457;-43
2023/01/24 01:05:08;;;;;;;10.60;7.17;;;;;;;;;;5046140;28;20199;-43
2023/01/24 01:07:34;;;;;;;11.57;7.00;;;;;;;;;;5046299;28;20900;-43
2023/01/24 01:10:00;;;;;;;8.50;6.63;;;;;;;;;;5046212;28;20406;-43
2023/01/24 01:12:26;;;;;;;10.00;6.60;;;;;;;;;;5054345;28;20178;-43
2023/01/24 01:14:52;;;;;;;10.13;5.97;;;;;;;;;;5052028;28;20780;-43
2023/01/24 01:17:18;;;;;;;10.77;7.47;;;;;;;;;;5053225;28;20413;-43
2023/01/24 01:19:43;;;;;;;10.77;6.70;;;;;;;;;;5045386;28;20319;-43
2023/01/24 01:22:09;;;;;;;9.47;7.03;;;;;;;;;;5051845;28;20445;-43
2023/01/24 01:24:36;;;;;;;8.53;6.40;;;;;;;;;;5045811;28;20770;-43
2023/01/24 01:27:02;;;;;;;10.07;6.65;;;;;;;;;;5045634;28;20395;-43
2023/01/24 01:29:28;;;;;;;10.10;8.07;;;;;;;;;;5047488;28;20540;-44
2023/01/24 01:31:54;;;;;;;5.97;5.13;;;;;;;;;;5050724;28;20274;-43
2023/01/24 01:34:20;;;;;;;9.15;7.07;;;;;;;;;;5042034;28;20816;-43
2023/01/24 01:36:46;;;;;;;11.02;6.55;;;;;;;;;;5050320;28;20179;-43
2023/01/24 01:39:12;;;;;;;8.93;6.60;;;;;;;;;;5047000;28;20175;-43
2023/01/24 01:41:38;;;;;;;7.37;5.73;;;;;;;;;;5049436;28;20428;-43
2023/01/24 01:44:40;;;;;;;8.77;6.87;;;;;;;;;;5042653;28;20452;-43
2023/01/24 01:47:15;;;;;;;8.52;6.78;;;;;;;;;;5052258;28;20466;-43
2023/01/24 01:49:44;;;;;;;9.13;6.38;;;;;;;;;;5045654;28;20646;-43
2023/01/24 01:52:10;;;;;;;9.57;6.20;;;;;;;;;;5045290;28;20226;-43
2023/01/24 01:54:39;;;;;;;12.27;7.53;;;;;;;;;;5046326;28;20195;-43
2023/01/24 01:57:08;;;;;;;8.40;6.00;;;;;;;;;;5045086;28;20191;-43
2023/01/24 01:59:36;;;;;;;9.55;6.88;;;;;;;;;;5049565;28;20182;-43
2023/01/24 02:02:02;;;;;;;16.27;6.65;;;;;;;;;;5044144;28;20659;-43
2023/01/24 02:04:33;;;;;;;6.82;5.90;;;;;;;;;;5047578;28;20285;-43
2023/01/24 02:07:19;;;;;;;7.20;6.22;;;;;;;;;;5047984;28;20182;-43
2023/01/24 02:09:47;;;;;;;9.27;5.90;;;;;;;;;;5050430;28;20163;-43
2023/01/24 02:12:15;;;;;;;10.25;6.82;;;;;;;;;;5053697;28;20542;-43
2023/01/24 02:17:26;;;;;;;9.55;6.25;;;;;;;;;;5045081;28;20264;-43
2023/01/24 02:19:52;;;;;;;5.80;4.40;;;;;;;;;;5053283;28;20666;-43
2023/01/24 02:22:25;;;;;;;7.83;5.40;;;;;;;;;;5047637;28;21008;-43
2023/01/24 02:25:02;;;;;;;9.38;6.40;;;;;;;;;;5049292;28;20463;-43
2023/01/24 02:27:28;;;;;;;8.40;5.72;;;;;;;;;;5049870;28;20535;-43
2023/01/24 02:29:54;;;;;;;8.63;5.70;;;;;;;;;;5042659;28;20163;-43
2023/01/24 02:32:20;;;;;;;8.55;6.45;;;;;;;;;;5048706;28;20262;-46
2023/01/24 02:34:46;;;;;;;11.55;6.95;;;;;;;;;;5044269;28;20195;-44
2023/01/24 02:37:13;;;;;;;11.80;6.82;;;;;;;;;;5052727;28;20181;-43
2023/01/24 02:39:56;;;;;;;8.90;6.20;;;;;;;;;;5044559;28;20301;-43
2023/01/24 02:42:24;;;;;;;8.18;6.47;;;;;;;;;;5046886;28;20208;-43
2023/01/24 02:45:22;;;;;;;9.15;5.82;;;;;;;;;;5042247;28;20195;-43
2023/01/24 02:47:49;;;;;;;12.32;7.30;;;;;;;;;;4996941;28;20192;-43
2023/01/24 02:50:16;;;;;;;7.65;6.85;;;;;;;;;;5047545;28;20178;-43
2023/01/24 02:55:27;;;;;;;7.57;5.82;;;;;;;;;;5047285;28;20281;-43
2023/01/24 02:58:05;;;;;;;9.93;5.20;;;;;;;;;;5050125;28;20261;-43
2023/01/24 03:00:31;;;;;;;11.55;6.18;;;;;;;;;;5047314;28;20401;-43
2023/01/24 03:02:57;;;;;;;9.32;6.10;;;;;;;;;;5052173;28;20214;-43
2023/01/24 03:05:23;;;;;;;9.23;6.63;;;;;;;;;;5044169;28;20237;-43
2023/01/24 03:07:49;;;;;;;10.97;7.37;;;;;;;;;;5044061;28;20417;-43
2023/01/24 03:10:17;;;;;;;10.30;6.20;;;;;;;;;;5047429;28;20415;-43
2023/01/24 03:34:59;;;;;;;7.35;5.35;;;;;;;;;;5048113;28;20269;-43
2023/01/24 03:40:14;;;;;;;9.23;5.30;;;;;;;;;;5044859;28;20413;-43
2023/01/24 03:42:47;;;;;;;10.55;6.60;;;;;;;;;;5048833;28;20203;-44
2023/01/24 03:45:33;;;;;;;12.57;6.70;;;;;;;;;;5044771;28;20567;-43
2023/01/24 03:48:01;;;;;;;10.52;6.50;;;;;;;;;;5050741;28;20642;-43
2023/01/24 03:53:14;;;;;;;8.82;6.07;;;;;;;;;;5050932;28;20561;-43
2023/01/24 03:55:40;;;;;;;8.13;6.70;;;;;;;;;;5049933;28;20201;-43
2023/01/24 03:58:06;;;;;;;10.80;6.80;;;;;;;;;;5043009;28;20206;-43
2023/01/24 04:00:33;;;;;;;9.85;6.63;;;;;;;;;;5044207;28;20204;-43
2023/01/24 04:02:59;;;;;;;8.90;6.13;;;;;;;;;;5047765;28;20195;-43
2023/01/24 04:05:27;;;;;;;13.00;7.70;;;;;;;;;;5045883;28;20219;-43
2023/01/24 04:07:56;;;;;;;10.25;6.45;;;;;;;;;;5047928;28;20175;-43
2023/01/24 04:10:22;;;;;;;10.32;6.40;;;;;;;;;;5043084;28;20175;-43
2023/01/24 04:12:48;;;;;;;10.75;6.97;;;;;;;;;;5047422;28;20183;-43
2023/01/24 04:15:19;;;;;;;9.07;6.43;;;;;;;;;;5042819;28;20281;-43
2023/01/24 04:17:45;;;;;;;11.65;7.10;;;;;;;;;;5051110;28;20411;-43
2023/01/24 04:20:11;;;;;;;8.82;6.97;;;;;;;;;;5046868;28;20861;-43
2023/01/24 04:22:37;;;;;;;10.80;7.22;;;;;;;;;;5047535;28;20721;-43
2023/01/24 04:25:04;;;;;;;11.33;7.10;;;;;;;;;;5047372;28;20212;-43
2023/01/24 04:27:30;;;;;;;11.00;7.65;;;;;;;;;;5046466;28;20421;-43
2023/01/24 04:29:56;;;;;;;8.70;6.60;;;;;;;;;;5042963;28;20175;-43
2023/01/24 04:32:22;;;;;;;11.03;7.20;;;;;;;;;;5046025;28;20466;-43
2023/01/24 04:34:48;;;;;;;13.13;7.87;;;;;;;;;;5042418;28;20606;-43
2023/01/24 04:37:13;;;;;;;11.80;7.57;;;;;;;;;;5051297;28;20409;-43
2023/01/24 04:39:39;;;;;;;10.50;7.00;;;;;;;;;;5042736;28;20780;-43
2023/01/24 04:42:06;;;;;;;11.17;6.73;;;;;;;;;;5050972;28;20457;-43
2023/01/24 04:44:32;;;;;;;12.52;7.80;;;;;;;;;;5050840;28;20425;-43
2023/01/24 04:46:58;;;;;;;12.65;8.43;;;;;;;;;;5042981;28;20647;-43
2023/01/24 04:49:24;;;;;;;16.67;8.83;;;;;;;;;;5043340;28;20229;-43
2023/01/24 04:51:51;;;;;;;10.07;7.93;;;;;;;;;;5044801;28;20463;-43
2023/01/24 04:54:17;;;;;;;10.30;7.78;;;;;;;;;;5042596;28;20801;-43
2023/01/24 04:56:43;;;;;;;11.90;7.65;;;;;;;;;;5044370;28;20199;-44
2023/01/24 04:59:11;;;;;;;13.15;8.10;;;;;;;;;;5046892;28;20259;-43
2023/01/24 05:01:37;;;;;;;11.70;7.45;;;;;;;;;;5046754;28;20254;-43
2023/01/24 05:04:03;;;;;;;12.33;7.67;;;;;;;;;;5050639;28;20282;-43
2023/01/24 05:06:30;;;;;;;8.90;7.18;;;;;;;;;;5042472;28;20425;-43
2023/01/24 05:08:56;;;;;;;10.70;7.60;;;;;;;;;;5050847;28;20678;-43
2023/01/24 05:11:23;;;;;;;11.90;7.65;;;;;;;;;;5042639;28;20175;-43
2023/01/24 05:13:49;;;;;;;12.30;8.15;;;;;;;;;;5042443;28;20183;-44
2023/01/24 05:16:15;;;;;;;11.50;8.98;;;;;;;;;;5045366;28;20238;-43
2023/01/24 05:18:41;;;;;;;12.02;8.38;;;;;;;;;;5047915;28;20187;-43
2023/01/24 05:21:16;;;;;;;18.47;8.70;;;;;;;;;;5039227;28;20176;-43
2023/01/24 05:23:43;;;;;;;11.57;8.00;;;;;;;;;;5050999;28;20626;-44
2023/01/24 05:26:09;;;;;;;13.02;7.95;;;;;;;;;;5054206;28;20545;-44
2023/01/24 05:28:35;;;;;;;11.15;7.25;;;;;;;;;;5053970;28;20229;-43
2023/01/24 05:31:03;;;;;;;12.48;8.65;;;;;;;;;;5046023;28;20174;-43
2023/01/24 05:33:29;;;;;;;12.23;8.15;;;;;;;;;;5047123;28;20662;-43
2023/01/24 05:36:01;;;;;;;13.10;8.40;;;;;;;;;;5044666;28;20204;-43
2023/01/24 05:38:27;;;;;;;13.70;9.10;;;;;;;;;;5047217;28;20196;-43
2023/01/24 05:40:53;;;;;;;15.03;9.30;;;;;;;;;;5050649;28;20179;-43
2023/01/24 05:43:19;;;;;;;12.93;8.80;;;;;;;;;;5047521;28;20979;-43
2023/01/24 05:45:45;;;;;;;14.40;9.07;;;;;;;;;;5045492;28;20518;-43
2023/01/24 05:48:11;;;;;;;13.27;7.20;;;;;;;;;;5052936;28;20421;-43
2023/01/24 05:50:37;;;;;;;15.40;8.70;;;;;;;;;;5045711;28;20413;-44
2023/01/24 05:53:04;;;;;;;10.90;7.40;;;;;;;;;;5052420;28;20228;-43
2023/01/24 05:55:30;;;;;;;11.60;8.63;;;;;;;;;;5052755;28;20440;-43
2023/01/24 05:57:56;;;;;;;16.08;9.02;;;;;;;;;;5050804;28;20674;-43
2023/01/24 06:00:22;;;;;;;12.53;8.50;;;;;;;;;;5047932;28;20178;-43
2023/01/24 06:02:48;;;;;;;12.55;8.23;;;;;;;;;;5043823;28;20457;-43
2023/01/24 06:05:14;;;;;;;16.57;9.70;;;;;;;;;;5046696;28;20561;-43
2023/01/24 06:07:40;;;;;;;12.47;8.77;;;;;;;;;;5045142;28;20849;-43
2023/01/24 06:10:06;;;;;;;13.80;9.20;;;;;;;;;;5045242;28;20416;-43
2023/01/24 06:12:32;;;;;;;15.52;9.95;;;;;;;;;;5051018;28;20897;-43
2023/01/24 06:14:58;;;;;;;17.40;8.40;;;;;;;;;;5050476;28;20199;-43
2023/01/24 06:17:24;;;;;;;15.10;9.17;;;;;;;;;;5045364;28;20561;-44
2023/01/24 06:19:50;;;;;;;14.70;9.70;;;;;;;;;;5054069;28;20420;-44
2023/01/24 06:22:26;;;;;;;15.82;9.00;;;;;;;;;;5044881;28;20453;-43
2023/01/24 06:24:52;;;;;;;14.10;8.25;;;;;;;;;;5049909;28;20232;-43
2023/01/24 06:27:18;;;;;;;16.95;9.65;;;;;;;;;;5051808;28;20167;-43
2023/01/24 06:29:44;;;;;;;16.70;9.77;;;;;;;;;;5052896;28;20635;-43
2023/01/24 06:32:22;;;;;;;12.93;9.07;;;;;;;;;;5051264;28;20194;-43
2023/01/24 06:35:05;;;;;;;12.93;8.43;;;;;;;;;;5044911;28;20207;-43
2023/01/24 06:37:37;;;;;;;13.23;9.00;;;;;;;;;;5049009;28;20207;-43
2023/01/24 06:40:11;;;;;;;11.55;8.73;;;;;;;;;;5044645;28;20182;-43
2023/01/24 06:42:37;;;;;;;13.77;8.38;;;;;;;;;;5048767;28;20737;-43
2023/01/24 06:45:03;;;;;;;13.73;9.00;;;;;;;;;;5031527;28;20207;-43
2023/01/24 06:47:29;;;;;;;12.10;8.57;;;;;;;;;;5047801;28;20183;-43
2023/01/24 06:49:55;;;;;;;11.23;7.93;;;;;;;;;;5052452;28;20174;-43
2023/01/24 06:52:21;;;;;;;14.93;9.17;;;;;;;;;;5044427;28;20908;-43
2023/01/24 06:54:47;;;;;;;12.90;8.35;;;;;;;;;;5043947;28;20437;-43
2023/01/24 06:57:13;;;;;;;14.60;9.53;;;;;;;;;;5043962;28;20194;-43
2023/01/24 06:59:39;;;;;;;15.38;9.30;;;;;;;;;;5040907;28;20531;-44
2023/01/24 07:02:05;;;;;;;13.93;9.27;;;;;;;;;;5048795;28;20226;-44
2023/01/24 07:04:31;;;;;;;11.60;7.78;;;;;;;;;;5050576;28;20913;-43
2023/01/24 07:06:57;;;;;;;11.07;8.00;;;;;;;;;;5041488;28;20301;-43
2023/01/24 07:09:24;;;;;;;13.07;8.27;;;;;;;;;;5049803;28;20394;-43
2023/01/24 07:11:54;;;;;;;12.05;7.57;;;;;;;;;;5043937;28;20175;-43
2023/01/24 07:14:20;;;;;;;12.07;7.65;;;;;;;;;;5051634;28;20181;-43
2023/01/24 07:16:46;;;;;;;12.27;7.83;;;;;;;;;;5043818;28;20172;-43
2023/01/24 07:19:16;;;;;;;11.20;7.70;;;;;;;;;;5047887;28;20927;-43
2023/01/24 07:21:43;;;;;;;12.43;8.43;;;;;;;;;;5051523;28;20413;-44
2023/01/24 07:24:13;;;;;;;12.48;7.28;;;;;;;;;;5041969;28;20217;-44
2023/01/24 07:26:40;;;;;;;14.48;7.88;;;;;;;;;;5048376;28;20272;-43
2023/01/24 07:29:06;;;;;;;10.35;7.75;;;;;;;;;;5045537;28;20179;-44
2023/01/24 07:31:32;;;;;;;12.20;8.23;;;;;;;;;;5043239;28;20167;-43
2023/01/24 07:33:57;;;;;;;11.50;7.93;;;;;;;;;;5050912;28;20413;-44
2023/01/24 07:36:23;;;;;;;9.60;7.83;;;;;;;;;;5045028;28;20441;-43
2023/01/24 07:38:53;;;;;;;10.40;7.13;;;;;;;;;;5048993;28;20448;-43
2023/01/24 07:41:18;;;;;;;10.48;6.80;;;;;;;;;;5045696;28;20457;-43
2023/01/24 07:43:44;;;;;;;9.70;6.87;;;;;;;;;;5047754;28;20238;-43
2023/01/24 07:46:11;;;;;;;10.10;6.85;;;;;;;;;;5043626;28;20479;-43
2023/01/24 07:48:37;;;;;;;9.68;7.15;;;;;;;;;;5044060;28;20178;-43
2023/01/24 07:51:03;;;;;;;10.13;8.00;;;;;;;;;;5043374;28;20259;-43
2023/01/24 07:53:29;;;;;;;8.75;6.38;;;;;;;;;;5043629;28;20421;-43
2023/01/24 07:55:55;;;;;;;9.27;6.90;;;;;;;;;;5050440;28;20198;-43
2023/01/24 07:58:21;;;;;;;9.45;6.57;;;;;;;;;;5051527;28;20429;-43
2023/01/24 08:00:47;;;;;;;7.40;5.93;;;;;;;;;;5049908;28;20594;-43
2023/01/24 08:03:12;;;;;;;12.13;8.07;;;;;;;;;;5044231;28;20461;-43
2023/01/24 08:05:38;;;;;;;10.33;6.57;;;;;;;;;;5042721;28;20457;-43
2023/01/24 08:08:05;;;;;;;15.75;7.72;;;;;;;;;;5043435;28;20417;-43
2023/01/24 08:10:30;;;;;;;8.20;6.32;;;;;;;;;;5043223;28;20256;-43
2023/01/24 08:12:57;;;;;;;10.37;7.47;;;;;;;;;;5049986;28;20778;-43
2023/01/24 08:15:23;;;;;;;11.93;7.30;;;;;;;;;;5051076;28;20564;-43
2023/01/24 08:17:49;;;;;;;10.68;8.05;;;;;;;;;;5042280;28;20212;-43
2023/01/24 08:20:15;;;;;;;10.70;7.20;;;;;;;;;;5046048;28;20682;-43
2023/01/24 08:22:41;;;;;;;9.65;6.90;;;;;;;;;;5047591;28;20206;-42
2023/01/24 08:25:08;;;;;;;9.80;7.05;;;;;;;;;;5050172;28;20196;-43
2023/01/24 08:27:34;;;;;;;10.75;8.23;;;;;;;;;;5043078;28;20166;-43
2023/01/24 08:30:00;;;;;;;8.45;6.78;;;;;;;;;;5042563;28;20178;-43
2023/01/24 08:32:26;;;;;;;9.90;6.43;;;;;;;;;;5044823;28;20262;-43
2023/01/24 08:34:52;;;;;;;10.17;7.20;;;;;;;;;;5040986;28;20949;-43
2023/01/24 08:37:18;;;;;;;8.77;6.60;;;;;;;;;;5045542;28;20916;-43
2023/01/24 08:39:44;;;;;;;10.00;7.70;;;;;;;;;;5048405;28;20471;-44
2023/01/24 08:42:10;;;;;;;11.70;6.57;;;;;;;;;;5050984;28;20582;-44
2023/01/24 08:44:36;;;;;;;9.70;7.15;;;;;;;;;;5048182;28;20468;-45
2023/01/24 08:47:02;;;;;;;8.63;7.57;;;;;;;;;;5042603;28;20179;-43
2023/01/24 08:49:28;;;;;;;9.30;7.40;;;;;;;;;;5048330;28;20236;-44
2023/01/24 08:51:58;;;;;;;10.50;7.28;;;;;;;;;;5042627;28;20929;-44
2023/01/24 08:54:35;;;;;;;11.15;7.63;;;;;;;;;;5044233;28;20175;-44
2023/01/24 08:57:01;;;;;;;9.20;6.47;;;;;;;;;;5047659;28;20183;-43
2023/01/24 08:59:27;;;;;;;10.77;7.13;;;;;;;;;;5049881;28;20213;-43
2023/01/24 09:01:53;;;;;;;10.67;7.90;;;;;;;;;;5045723;28;20207;-44
2023/01/24 09:04:19;;;;;;;9.07;7.40;;;;;;;;;;5050630;28;20468;-48
2023/01/24 09:06:45;;;;;;;7.70;5.68;;;;;;;;;;5046359;28;20760;-48
2023/01/24 09:09:11;;;;;;;9.67;7.03;;;;;;;;;;5050782;28;20171;-45
2023/01/24 09:11:37;;;;;;;8.50;6.90;;;;;;;;;;5046354;28;20514;-47
2023/01/24 09:14:04;;;;;;;8.68;7.18;;;;;;;;;;5054070;28;20413;-47
2023/01/24 09:16:30;;;;;;;11.32;7.63;;;;;;;;;;5054419;28;20195;-46
2023/01/24 09:18:56;;;;;;;10.50;8.30;;;;;;;;;;5043633;28;20228;-45
2023/01/24 09:21:22;;;;;;;11.98;7.68;;;;;;;;;;5048645;28;20412;-46
2023/01/24 09:23:48;;;;;;;10.20;7.03;;;;;;;;;;5045850;28;20205;-47
2023/01/24 09:26:14;;;;;;;9.13;7.10;;;;;;;;;;5045698;28;20199;-45
2023/01/24 09:28:40;;;;;;;10.47;7.43;;;;;;;;;;5049280;28;20405;-45
2023/01/24 09:31:09;;;;;;;15.20;8.40;;;;;;;;;;5050418;28;20411;-45
2023/01/24 09:33:35;;;;;;;8.65;7.25;;;;;;;;;;5044927;28;20414;-46
2023/01/24 09:36:03;;;;;;;10.90;8.20;;;;;;;;;;5050541;28;20286;-45
2023/01/24 09:38:30;;;;;;;10.60;7.35;;;;;;;;;;5049107;28;20853;-45
2023/01/24 09:41:08;;;;;;;9.50;7.18;;;;;;;;;;5053939;28;20175;-45
2023/01/24 09:43:41;;;;;;;10.15;7.60;;;;;;;;;;5049964;28;20561;-46
2023/01/24 09:46:16;;;;;;;10.70;8.00;;;;;;;;;;5045272;28;20191;-44
2023/01/24 09:48:42;;;;;;;10.70;8.18;;;;;;;;;;5053648;28;20189;-45
2023/01/24 09:51:13;;;;;;;9.50;6.72;;;;;;;;;;5052021;28;20179;-45
2023/01/24 09:53:46;;;;;;;11.13;8.10;;;;;;;;;;5047264;28;20203;-46
2023/01/24 09:56:33;;;;;;;10.93;8.27;;;;;;;;;;5048804;28;20282;-45
2023/01/24 09:59:10;;;;;;;12.20;7.60;;;;;;;;;;5039754;28;20305;-40
2023/01/24 10:01:38;;;;;;;10.85;8.00;;;;;;;;;;5045512;28;20192;-41
2023/01/24 10:04:04;;;;;;;11.05;8.18;;;;;;;;;;5053041;28;20634;-41
2023/01/24 10:06:31;;;;;;;11.27;7.78;;;;;;;;;;5053349;28;20495;-41
2023/01/24 10:09:23;;;;;;;12.25;8.52;;;;;;;;;;5043911;28;20175;-46
2023/01/24 10:11:55;;;;;;;10.40;7.43;;;;;;;;;;5047735;28;20187;-42
2023/01/24 10:14:27;;;;;;;11.10;7.55;;;;;;;;;;5045471;28;20356;-43
2023/01/24 10:17:15;;;;;;;12.15;7.57;;;;;;;;;;5045000;28;20193;-41
2023/01/24 10:19:41;;;;;;;10.85;5.93;;;;;;;;;;5045577;28;20179;-41
2023/01/24 10:22:22;;;;;;;7.57;5.63;;;;;;;;;;5044822;28;20190;-41
2023/01/24 10:24:53;;;;;;;10.05;7.05;;;;;;;;;;5052346;28;20440;-43
2023/01/24 10:27:30;;;;;;;12.98;9.35;;;;;;;;;;5047905;28;20203;-42
2023/01/24 10:30:02;;;;;;;11.75;8.70;;;;;;;;;;5051839;28;20175;-43
2023/01/24 10:32:35;;;;;;;11.75;8.25;;;;;;;;;;5028408;28;20188;-41
2023/01/24 10:35:20;;;;;;;11.02;8.05;;;;;;;;;;5048707;28;20195;-42
2023/01/24 10:37:49;;;;;;;12.95;9.10;;;;;;;;;;5049296;28;20183;-42
2023/01/24 10:40:16;;;;;;;11.30;8.57;;;;;;;;;;5046186;28;20175;-44
2023/01/24 10:42:42;;;;;;;11.55;8.65;;;;;;;;;;5044213;28;20217;-40
2023/01/24 10:45:29;;;;;;;13.82;9.50;;;;;;;;;;5044969;28;20558;-40
2023/01/24 10:48:10;;;;;;;15.30;9.55;;;;;;;;;;5051499;28;20175;-41
2023/01/24 10:50:43;;;;;;;13.18;9.20;;;;;;;;;;5048946;28;20559;-42
2023/01/24 10:53:13;;;;;;;12.55;9.32;;;;;;;;;;5042517;28;20651;-41
2023/01/24 10:55:39;;;;;;;11.60;8.55;;;;;;;;;;5051923;28;20195;-46
2023/01/24 10:58:24;;;;;;;10.05;7.90;;;;;;;;;;5044032;28;20628;-41
2023/01/24 11:00:57;;;;;;;13.70;9.07;;;;;;;;;;5052278;28;20687;-42
2023/01/24 11:03:26;;;;;;;11.15;9.00;;;;;;;;;;5046256;28;20203;-42
2023/01/24 11:05:53;;;;;;;13.73;9.48;;;;;;;;;;5048483;28;20194;-41
2023/01/24 11:08:27;;;;;;;13.52;9.98;;;;;;;;;;5044450;28;20183;-45
2023/01/24 11:10:54;;;;;;;10.93;8.50;;;;;;;;;;5032459;28;20171;-41
2023/01/24 11:13:23;;;;;;;14.82;9.15;;;;;;;;;;5046204;28;20175;-44
2023/01/24 11:15:51;;;;;;;9.27;8.27;;;;;;;;;;5050029;28;20447;-41
2023/01/24 11:18:21;;;;;;;12.13;8.95;;;;;;;;;;5043909;28;20265;-40
2023/01/24 11:20:47;;;;;;;11.93;9.20;;;;;;;;;;5042852;28;20175;-44
2023/01/24 11:23:13;;;;;;;12.50;8.63;;;;;;;;;;5047147;28;20206;-45
2023/01/24 11:25:53;;;;;;;13.30;8.77;;;;;;;;;;5042100;28;20203;-42
2023/01/24 11:28:32;;;;;;;12.38;8.65;;;;;;;;;;5046403;28;20407;-41
2023/01/24 11:31:06;;;;;;;11.07;8.43;;;;;;;;;;5048520;28;20719;-40
2023/01/24 11:33:54;;;;;;;14.18;9.73;;;;;;;;;;5047248;28;20646;-42
2023/01/24 11:36:20;;;;;;;10.70;9.00;;;;;;;;;;5045957;28;20286;-42
2023/01/24 11:38:46;;;;;;;10.50;8.33;;;;;;;;;;5042372;28;20257;-46
2023/01/24 11:41:31;;;;;;;12.45;9.35;;;;;;;;;;5044899;28;20448;-42
2023/01/24 11:44:00;;;;;;;13.90;9.38;;;;;;;;;;5050542;28;20313;-46
2023/01/24 11:46:29;;;;;;;12.95;9.77;;;;;;;;;;5043515;28;20202;-41
2023/01/24 11:49:13;;;;;;;11.35;8.20;;;;;;;;;;5043640;28;20206;-46
2023/01/24 11:52:05;;;;;;;10.60;9.48;;;;;;;;;;5043524;28;20186;-42
2023/01/24 11:54:34;;;;;;;12.30;9.32;;;;;;;;;;5038642;28;20238;-43
2023/01/24 11:57:12;;;;;;;13.23;10.02;;;;;;;;;;5043266;28;20248;-41
2023/01/24 11:59:48;;;;;;;13.68;9.85;;;;;;;;;;5051605;28;20210;-47
2023/01/24 12:02:13;;;;;;;12.82;9.07;;;;;;;;;;5050437;28;20182;-44
2023/01/24 12:04:51;;;;;;;11.07;8.40;;;;;;;;;;5050437;28;20289;-42
2023/01/24 12:07:17;;;;;;;10.93;8.05;;;;;;;;;;5045028;28;20503;-42
2023/01/24 12:09:52;;;;;;;11.60;8.63;;;;;;;;;;5050577;28;20246;-42
2023/01/24 12:12:25;;;;;;;9.98;8.68;;;;;;;;;;5044770;28;20406;-45
2023/01/24 12:14:58;;;;;;;12.25;8.43;;;;;;;;;;5042629;28;20658;-42
2023/01/24 12:17:43;;;;;;;10.90;8.68;;;;;;;;;;5043402;28;20179;-41
2023/01/24 12:20:19;;;;;;;9.15;7.90;;;;;;;;;;5050254;28;20240;-43
2023/01/24 12:22:46;;;;;;;11.35;8.85;;;;;;;;;;5042940;28;20198;-44
2023/01/24 12:25:31;;;;;;;10.20;8.55;;;;;;;;;;5049512;28;20201;-43
2023/01/24 12:28:01;;;;;;;10.50;8.52;;;;;;;;;;5042864;28;20175;-43
2023/01/24 12:30:33;;;;;;;11.95;7.93;;;;;;;;;;5044399;28;20179;-43
2023/01/24 12:33:09;;;;;;;9.70;7.75;;;;;;;;;;5051447;28;20183;-43
2023/01/24 12:35:37;;;;;;;9.73;8.07;;;;;;;;;;5043232;28;20203;-44
2023/01/24 12:38:15;;;;;;;11.55;9.15;;;;;;;;;;5051507;28;20214;-44
2023/01/24 12:40:49;;;;;;;8.32;7.32;;;;;;;;;;5051325;28;20266;-44
2023/01/24 12:43:15;;;;;;;13.32;8.40;;;;;;;;;;5048324;28;20277;-44
2023/01/24 12:45:47;;;;;;;11.20;8.30;;;;;;;;;;5052559;28;20270;-44
2023/01/24 12:48:32;;;;;;;10.05;8.32;;;;;;;;;;5046557;28;20498;-43
2023/01/24 12:51:03;;;;;;;9.77;8.13;;;;;;;;;;5052151;28;20249;-43
2023/01/24 12:53:39;;;;;;;10.90;7.80;;;;;;;;;;5046527;28;20678;-44
2023/01/24 12:56:17;;;;;;;9.52;8.15;;;;;;;;;;5050680;28;20202;-44
2023/01/24 12:58:46;;;;;;;10.63;8.50;;;;;;;;;;5046269;28;20198;-43
2023/01/24 13:01:14;;;;;;;10.80;7.95;;;;;;;;;;5050216;28;20180;-44
2023/01/24 13:03:59;;;;;;;8.70;6.82;;;;;;;;;;5043137;28;20214;-44
2023/01/24 13:06:36;;;;;;;11.52;8.32;;;;;;;;;;5048438;28;20631;-44
2023/01/24 13:09:21;;;;;;;8.90;7.38;;;;;;;;;;5051062;28;20616;-44
2023/01/24 13:11:48;;;;;;;9.27;6.65;;;;;;;;;;5051143;28;20186;-43
2023/01/24 13:14:18;;;;;;;9.85;8.63;;;;;;;;;;5039435;28;20200;-44
2023/01/24 13:17:02;;;;;;;11.13;7.90;;;;;;;;;;5053694;28;20171;-43
2023/01/24 13:19:40;;;;;;;9.23;7.93;;;;;;;;;;5049405;28;20171;-44
2023/01/24 13:22:25;;;;;;;9.15;7.13;;;;;;;;;;5046729;28;20233;-44
2023/01/24 13:25:09;;;;;;;9.02;7.70;;;;;;;;;;5052160;28;20247;-43
2023/01/24 13:27:49;;;;;;;9.73;7.07;;;;;;;;;;5050255;28;20228;-43
2023/01/24 13:30:24;;;;;;;10.45;7.75;;;;;;;;;;5049165;28;20912;-43
2023/01/24 13:32:51;;;;;;;9.65;7.60;;;;;;;;;;5046778;28;20191;-44
2023/01/24 13:35:24;;;;;;;10.82;7.65;;;;;;;;;;5048465;28;20209;-42
2023/01/24 13:37:54;;;;;;;10.57;7.50;;;;;;;;;;5045882;28;20183;-41
2023/01/24 13:40:23;;;;;;;10.25;7.82;;;;;;;;;;5053462;28;20183;-44
2023/01/24 13:42:49;;;;;;;10.35;7.35;;;;;;;;;;5051247;28;20244;-41
2023/01/24 13:45:30;;;;;;;8.50;7.50;;;;;;;;;;5046997;28;20202;-41
2023/01/24 13:47:58;;;;;;;10.68;7.82;;;;;;;;;;5042824;28;20255;-41
2023/01/24 13:50:27;;;;;;;10.90;8.18;;;;;;;;;;5048987;28;20270;-41
2023/01/24 13:52:54;;;;;;;11.82;7.80;;;;;;;;;;5044878;28;20175;-42
2023/01/24 13:55:21;;;;;;;9.00;7.38;;;;;;;;;;5046616;28;20201;-43
2023/01/24 13:57:47;;;;;;;11.30;8.32;;;;;;;;;;5044937;28;20241;-41
2023/01/24 14:00:14;;;;;;;8.17;7.33;;;;;;;;;;5053224;28;20190;-41
2023/01/24 14:02:40;;;;;;;9.20;7.25;;;;;;;;;;5044789;28;21048;-44
2023/01/24 14:05:25;;;;;;;10.30;7.20;;;;;;;;;;5052777;28;20206;-41
2023/01/24 14:07:51;;;;;;;10.50;7.45;;;;;;;;;;5051601;28;20410;-42
2023/01/24 14:10:17;;;;;;;10.30;8.00;;;;;;;;;;5047326;28;20186;-44
2023/01/24 14:12:53;;;;;;;12.87;9.10;;;;;;;;;;5045097;28;20470;-45
2023/01/24 14:15:22;;;;;;;10.30;6.75;;;;;;;;;;5045733;28;20955;-41
2023/01/24 14:17:49;;;;;;;11.20;8.00;;;;;;;;;;5043991;28;20673;-42
2023/01/24 14:20:23;;;;;;;8.93;7.50;;;;;;;;;;5045399;28;20274;-45
2023/01/24 14:22:52;;;;;;;10.65;8.35;;;;;;;;;;5044914;28;20679;-41
2023/01/24 14:25:27;;;;;;;9.02;7.57;;;;;;;;;;5052678;28;20226;-42
2023/01/24 14:27:57;;;;;;;11.98;7.38;;;;;;;;;;5053114;28;20253;-41
2023/01/24 14:30:29;;;;;;;12.98;8.48;;;;;;;;;;5052915;28;20544;-41
2023/01/24 14:33:03;;;;;;;9.48;7.43;;;;;;;;;;5050698;28;20187;-41
2023/01/24 14:35:37;;;;;;;9.10;7.03;;;;;;;;;;5048140;28;20197;-42
2023/01/24 14:38:16;;;;;;;9.25;7.75;;;;;;;;;;5044716;28;20166;-41
2023/01/24 14:40:42;;;;;;;8.27;7.35;;;;;;;;;;5044375;28;20278;-44
2023/01/24 14:43:09;;;;;;;11.43;8.25;;;;;;;;;;5044525;28;20210;-42
2023/01/24 14:45:35;;;;;;;9.25;7.60;;;;;;;;;;5044503;28;20222;-41
2023/01/24 14:48:06;;;;;;;10.00;7.57;;;;;;;;;;5044466;28;20638;-42
2023/01/24 14:50:33;;;;;;;11.90;7.80;;;;;;;;;;5051606;28;20409;-44
2023/01/24 14:53:00;;;;;;;9.57;7.13;;;;;;;;;;5049725;28;20516;-42
2023/01/24 14:55:30;;;;;;;10.50;8.70;;;;;;;;;;5044635;28;20922;-41
2023/01/24 14:57:56;;;;;;;13.63;8.18;;;;;;;;;;5050018;28;20187;-42
2023/01/24 15:00:23;;;;;;;9.57;7.67;;;;;;;;;;5046969;28;20182;-41
2023/01/24 15:03:01;;;;;;;10.85;7.65;;;;;;;;;;5044176;28;20495;-41
2023/01/24 15:05:27;;;;;;;10.63;8.27;;;;;;;;;;5043911;28;20193;-44
2023/01/24 15:07:54;;;;;;;10.53;8.10;;;;;;;;;;5043904;28;20179;-45
2023/01/24 15:10:40;;;;;;;9.73;8.15;;;;;;;;;;5050042;28;20428;-44
2023/01/24 15:13:08;;;;;;;10.07;8.20;;;;;;;;;;5037645;28;20175;-44
2023/01/24 15:15:35;;;;;;;9.98;8.35;;;;;;;;;;5049409;28;20563;-41
2023/01/24 15:18:02;;;;;;;8.80;7.63;;;;;;;;;;5049106;28;20176;-41
2023/01/24 15:20:28;;;;;;;13.90;8.07;;;;;;;;;;5046987;28;20179;-41